createdAt,value
2018-03-17T00:02:03.646Z,86.30
2018-03-17T00:04:31.184Z,86.70
2018-03-17T00:06:58.901Z,87.00
2018-03-17T00:09:26.472Z,86.90
2018-03-17T00:11:54.800Z,85.80
2018-03-17T00:14:22.513Z,85.70
2018-03-17T00:16:50.060Z,85.70
2018-03-17T00:19:18.392Z,84.70
2018-03-17T00:21:45.947Z,84.70
2018-03-17T00:24:13.599Z,85.20
2018-03-17T00:26:41.992Z,85.70
2018-03-17T00:29:09.525Z,85.70
2018-03-17T00:31:37.103Z,85.60
2018-03-17T00:34:04.780Z,86.00
2018-03-17T00:36:32.337Z,86.30
2018-03-17T00:38:59.866Z,86.50
2018-03-17T00:41:27.442Z,86.70
2018-03-17T00:43:55.034Z,86.20
2018-03-17T00:46:22.598Z,86.40
2018-03-17T00:48:50.173Z,86.40
2018-03-17T00:51:17.749Z,86.50
2018-03-17T00:53:45.303Z,86.20
2018-03-17T00:56:13.765Z,87.00
2018-03-17T00:58:41.306Z,86.10
2018-03-17T01:01:08.873Z,86.30
2018-03-17T01:03:37.924Z,86.20
2018-03-17T01:06:05.511Z,86.30
2018-03-17T01:08:33.055Z,86.40
2018-03-17T01:11:00.612Z,86.10
2018-03-17T01:13:28.144Z,85.80
2018-03-17T01:15:56.437Z,86.00
2018-03-17T01:18:24.060Z,85.90
2018-03-17T01:20:52.384Z,86.40
2018-03-17T01:23:19.923Z,86.30
2018-03-17T01:25:47.491Z,86.50
2018-03-17T01:28:15.050Z,86.60
2018-03-17T01:30:42.601Z,86.00
2018-03-17T01:33:10.140Z,86.10
2018-03-17T01:35:37.688Z,86.20
2018-03-17T01:38:05.230Z,85.70
2018-03-17T01:40:32.802Z,86.60
2018-03-17T01:43:00.412Z,86.60
2018-03-17T01:45:27.986Z,85.50
2018-03-17T01:47:55.525Z,85.50
2018-03-17T01:50:23.081Z,85.70
2018-03-17T01:52:50.625Z,85.20
2018-03-17T01:55:18.173Z,85.20
2018-03-17T01:57:46.656Z,84.90
2018-03-17T02:00:14.968Z,84.70
2018-03-17T02:02:42.525Z,84.60
2018-03-17T02:05:10.073Z,85.10
2018-03-17T02:07:37.654Z,84.70
2018-03-17T02:10:05.194Z,85.10
2018-03-17T02:12:32.752Z,85.30
2018-03-17T02:15:00.321Z,85.10
2018-03-17T02:17:27.858Z,85.50
2018-03-17T02:19:55.410Z,85.50
2018-03-17T02:22:23.716Z,84.90
2018-03-17T02:24:51.261Z,84.80
2018-03-17T02:27:19.350Z,85.10
2018-03-17T02:29:47.075Z,84.60
2018-03-17T02:32:14.641Z,84.70
2018-03-17T02:34:42.219Z,85.00
2018-03-17T02:37:10.578Z,84.10
2018-03-17T02:39:38.120Z,84.10
2018-03-17T02:42:05.689Z,84.10
2018-03-17T02:44:33.247Z,84.10
2018-03-17T02:47:01.569Z,84.40
2018-03-17T02:49:29.124Z,83.90
2018-03-17T02:51:56.687Z,83.90
2018-03-17T02:54:24.257Z,83.90
2018-03-17T02:56:51.841Z,83.90
2018-03-17T02:59:19.441Z,83.80
2018-03-17T03:01:47.750Z,83.80
2018-03-17T03:04:15.303Z,83.80
2018-03-17T03:06:42.901Z,83.80
2018-03-17T03:09:10.449Z,83.80
2018-03-17T03:11:38.024Z,83.80
2018-03-17T03:14:05.769Z,83.40
2018-03-17T03:16:33.344Z,83.40
2018-03-17T03:19:01.065Z,83.80
2018-03-17T03:21:28.650Z,82.90
2018-03-17T03:23:56.190Z,83.40
2018-03-17T03:26:23.755Z,83.70
2018-03-17T03:28:51.341Z,83.10
2018-03-17T03:31:18.904Z,83.30
2018-03-17T03:33:46.444Z,83.10
2018-03-17T03:36:14.026Z,83.60
2018-03-17T03:38:41.565Z,83.60
2018-03-17T03:41:09.200Z,83.60
2018-03-17T03:43:36.775Z,83.50
2018-03-17T03:46:04.525Z,83.60
2018-03-17T03:48:32.098Z,83.60
2018-03-17T03:50:59.864Z,83.60
2018-03-17T03:53:27.417Z,83.60
2018-03-17T03:55:54.975Z,83.50
2018-03-17T03:58:22.529Z,84.10
2018-03-17T04:00:50.078Z,83.50
2018-03-17T04:03:17.645Z,84.10
2018-03-17T04:05:45.203Z,83.50
2018-03-17T04:08:12.759Z,83.50
2018-03-17T04:10:40.392Z,83.50
2018-03-17T04:13:08.912Z,83.50
2018-03-17T04:15:36.458Z,83.50
2018-03-17T04:18:04.033Z,83.90
2018-03-17T04:20:31.595Z,83.60
2018-03-17T04:22:59.173Z,83.60
2018-03-17T04:25:26.727Z,83.60
2018-03-17T04:27:54.288Z,83.60
2018-03-17T04:30:21.832Z,83.60
2018-03-17T04:32:49.397Z,83.60
2018-03-17T04:35:16.966Z,83.50
2018-03-17T04:37:44.832Z,82.70
2018-03-17T04:40:12.370Z,83.20
2018-03-17T04:42:39.926Z,82.90
2018-03-17T04:45:07.460Z,82.80
2018-03-17T04:47:35.798Z,83.30
2018-03-17T04:50:04.893Z,83.30
2018-03-17T04:52:32.489Z,83.20
2018-03-17T04:55:00.802Z,83.20
2018-03-17T04:57:28.364Z,83.20
2018-03-17T04:59:55.926Z,83.30
2018-03-17T05:02:23.489Z,83.20
2018-03-17T05:04:51.020Z,83.20
2018-03-17T05:07:18.587Z,83.20
2018-03-17T05:09:46.130Z,83.20
2018-03-17T05:12:13.688Z,83.10
2018-03-17T05:14:41.481Z,82.90
2018-03-17T05:17:09.072Z,83.10
2018-03-17T05:19:37.409Z,83.10
2018-03-17T05:22:05.101Z,83.10
2018-03-17T05:24:32.741Z,83.10
2018-03-17T05:27:00.301Z,83.10
2018-03-17T05:29:27.850Z,83.10
2018-03-17T05:31:55.399Z,83.10
2018-03-17T05:34:23.789Z,83.00
2018-03-17T05:36:51.362Z,83.00
2018-03-17T05:39:18.907Z,83.00
2018-03-17T05:41:46.481Z,83.00
2018-03-17T05:44:14.033Z,82.90
2018-03-17T05:46:41.593Z,82.90
2018-03-17T05:49:09.128Z,82.90
2018-03-17T05:51:36.703Z,82.90
2018-03-17T05:54:04.238Z,82.90
2018-03-17T05:56:32.576Z,82.80
2018-03-17T05:59:00.133Z,82.80
2018-03-17T06:01:27.721Z,82.80
2018-03-17T06:03:55.257Z,82.80
2018-03-17T06:06:22.795Z,82.80
2018-03-17T06:08:50.357Z,83.00
2018-03-17T06:11:17.905Z,82.90
2018-03-17T06:13:45.501Z,82.90
2018-03-17T06:16:13.833Z,82.90
2018-03-17T06:18:41.601Z,82.80
2018-03-17T06:21:09.157Z,82.80
2018-03-17T06:23:37.597Z,82.90
2018-03-17T06:26:05.150Z,82.80
2018-03-17T06:28:32.759Z,82.80
2018-03-17T06:31:00.315Z,82.80
2018-03-17T06:33:27.996Z,82.80
2018-03-17T06:35:55.553Z,82.80
2018-03-17T06:38:23.109Z,82.80
2018-03-17T06:40:50.677Z,82.80
2018-03-17T06:43:18.244Z,82.90
2018-03-17T06:45:45.785Z,82.90
2018-03-17T06:48:13.363Z,82.90
2018-03-17T06:50:40.921Z,82.90
2018-03-17T06:53:08.500Z,82.90
2018-03-17T06:55:36.079Z,82.90
2018-03-17T06:58:04.416Z,82.90
2018-03-17T07:00:32.020Z,82.90
2018-03-17T07:03:00.353Z,82.30
2018-03-17T07:05:27.917Z,82.30
2018-03-17T07:07:56.219Z,83.00
2018-03-17T07:10:23.886Z,83.00
2018-03-17T07:12:52.234Z,82.90
2018-03-17T07:15:19.785Z,82.80
2018-03-17T07:17:47.374Z,82.90
2018-03-17T07:20:14.930Z,83.00
2018-03-17T07:22:43.280Z,83.00
2018-03-17T07:25:10.886Z,83.00
2018-03-17T07:27:38.393Z,83.10
2018-03-17T07:30:05.984Z,83.20
2018-03-17T07:32:34.362Z,82.40
2018-03-17T07:35:01.905Z,82.30
2018-03-17T07:37:31.352Z,82.70
2018-03-17T07:39:59.669Z,82.80
2018-03-17T07:42:27.247Z,82.70
2018-03-17T07:44:55.717Z,82.50
2018-03-17T07:47:23.374Z,82.60
2018-03-17T07:49:50.919Z,82.30
2018-03-17T07:52:19.235Z,82.10
2018-03-17T07:54:46.782Z,82.00
2018-03-17T07:57:14.356Z,81.40
2018-03-17T07:59:42.792Z,82.30
2018-03-17T08:02:10.367Z,82.30
2018-03-17T08:04:37.923Z,82.00
2018-03-17T08:07:05.488Z,81.70
2018-03-17T08:09:33.038Z,81.20
2018-03-17T08:12:00.596Z,81.10
2018-03-17T08:14:28.191Z,80.60
2018-03-17T08:16:55.739Z,81.10
2018-03-17T08:19:23.282Z,81.00
2018-03-17T08:21:50.844Z,81.20
2018-03-17T08:24:18.396Z,80.80
2018-03-17T08:26:45.982Z,81.10
2018-03-17T08:29:13.575Z,80.20
2018-03-17T08:31:41.150Z,80.90
2018-03-17T08:34:08.774Z,80.90
2018-03-17T08:36:36.298Z,80.80
2018-03-17T08:39:03.819Z,80.80
2018-03-17T08:41:31.410Z,80.50
2018-03-17T08:43:58.979Z,80.90
2018-03-17T08:46:26.571Z,81.20
2018-03-17T08:48:54.160Z,81.40
2018-03-17T08:51:22.499Z,81.10
2018-03-17T08:53:50.050Z,81.10
2018-03-17T08:56:17.631Z,80.70
2018-03-17T08:58:45.269Z,80.50
2018-03-17T09:01:15.330Z,80.80
2018-03-17T09:03:43.667Z,80.60
2018-03-17T09:06:11.229Z,80.50
2018-03-17T09:08:38.777Z,80.90
2018-03-17T09:11:06.341Z,80.50
2018-03-17T09:13:33.882Z,80.80
2018-03-17T09:16:01.454Z,81.00
2018-03-17T09:18:29.793Z,80.10
2018-03-17T09:20:57.382Z,80.00
2018-03-17T09:23:25.077Z,80.40
2018-03-17T09:25:53.447Z,80.10
2018-03-17T09:28:21.035Z,80.00
2018-03-17T09:30:49.379Z,81.00
2018-03-17T09:33:16.936Z,81.00
2018-03-17T09:35:44.518Z,81.00
2018-03-17T09:38:12.299Z,80.70
2018-03-17T09:40:40.706Z,80.60
2018-03-17T09:43:08.235Z,80.50
2018-03-17T09:45:36.622Z,81.10
2018-03-17T09:48:04.209Z,81.10
2018-03-17T09:50:31.784Z,81.00
2018-03-17T09:52:59.339Z,80.90
2018-03-17T09:55:26.909Z,81.10
2018-03-17T09:57:54.454Z,80.70
2018-03-17T10:00:22.054Z,80.90
2018-03-17T10:02:50.382Z,82.10
2018-03-17T10:05:17.964Z,82.10
2018-03-17T10:07:45.497Z,81.70
2018-03-17T10:10:13.047Z,81.70
2018-03-17T10:12:40.597Z,81.60
2018-03-17T10:15:08.169Z,81.70
2018-03-17T10:17:35.751Z,81.70
2018-03-17T10:20:03.322Z,82.30
2018-03-17T10:22:31.074Z,82.20
2018-03-17T10:24:58.638Z,82.90
2018-03-17T10:27:26.199Z,82.30
2018-03-17T10:29:53.753Z,82.30
2018-03-17T10:32:21.467Z,82.30
2018-03-17T10:34:49.778Z,82.20
2018-03-17T10:37:17.401Z,82.20
2018-03-17T10:39:45.749Z,82.20
2018-03-17T10:42:13.313Z,82.20
2018-03-17T10:44:40.884Z,82.20
2018-03-17T10:47:08.461Z,82.40
2018-03-17T10:49:36.788Z,81.90
2018-03-17T10:52:04.457Z,81.90
2018-03-17T10:54:32.133Z,82.30
2018-03-17T10:56:59.706Z,83.00
2018-03-17T10:59:27.287Z,82.90
2018-03-17T11:01:54.869Z,82.60
2018-03-17T11:04:22.424Z,83.20
2018-03-17T11:06:49.985Z,82.80
2018-03-17T11:09:17.521Z,82.80
2018-03-17T11:11:45.118Z,83.20
2018-03-17T11:14:12.692Z,83.70
2018-03-17T11:16:40.255Z,82.50
2018-03-17T11:19:07.849Z,82.50
2018-03-17T11:21:36.305Z,83.00
2018-03-17T11:24:05.345Z,83.70
2018-03-17T11:26:33.077Z,82.90
2018-03-17T11:29:00.656Z,82.50
2018-03-17T11:31:30.256Z,82.30
2018-03-17T11:33:59.957Z,83.30
2018-03-17T11:36:28.294Z,83.10
2018-03-17T11:38:55.896Z,83.20
2018-03-17T11:41:24.227Z,82.10
2018-03-17T11:43:51.795Z,82.10
2018-03-17T11:46:19.354Z,82.30
2018-03-17T11:48:46.968Z,82.90
2018-03-17T11:51:15.266Z,83.20
2018-03-17T11:53:42.844Z,82.60
2018-03-17T11:56:11.030Z,82.40
2018-03-17T11:58:38.588Z,82.90
2018-03-17T12:01:06.216Z,83.70
2018-03-17T12:03:33.762Z,82.50
2018-03-17T12:06:02.175Z,82.10
2018-03-17T12:08:29.734Z,82.10
2018-03-17T12:10:57.310Z,81.60
2018-03-17T12:13:24.861Z,81.40
2018-03-17T12:15:52.462Z,82.10
2018-03-17T12:18:20.068Z,81.70
2018-03-17T12:20:47.735Z,82.30
2018-03-17T12:23:15.347Z,81.80
2018-03-17T12:25:44.493Z,81.80
2018-03-17T12:28:12.097Z,81.80
2018-03-17T12:30:39.661Z,81.60
2018-03-17T12:33:07.274Z,83.80
2018-03-17T12:35:34.984Z,82.30
2018-03-17T12:38:03.326Z,81.80
2018-03-17T12:40:30.947Z,81.70
2018-03-17T12:42:59.267Z,81.70
2018-03-17T12:45:26.847Z,81.70
2018-03-17T12:47:55.372Z,82.00
2018-03-17T12:50:24.076Z,80.90
2018-03-17T12:52:51.696Z,80.90
2018-03-17T12:55:20.006Z,80.00
2018-03-17T12:57:47.841Z,79.90
2018-03-17T13:00:16.161Z,79.90
2018-03-17T13:02:43.724Z,79.30
2018-03-17T13:05:11.276Z,79.80
2018-03-17T13:07:38.846Z,79.30
2018-03-17T13:10:06.387Z,79.50
2018-03-17T13:12:34.366Z,79.30
2018-03-17T13:15:01.925Z,79.70
2018-03-17T13:17:29.521Z,80.10
2018-03-17T13:19:57.067Z,79.70
2018-03-17T13:22:24.626Z,79.50
2018-03-17T13:24:52.196Z,79.60
2018-03-17T13:27:31.634Z,79.60
2018-03-17T13:29:59.186Z,79.70
2018-03-17T13:32:38.515Z,79.60
2018-03-17T13:35:06.082Z,79.70
2018-03-17T13:37:38.412Z,79.70
2018-03-17T13:40:18.170Z,79.30
2018-03-17T13:42:45.728Z,78.80
2018-03-17T13:45:13.262Z,79.50
2018-03-17T13:47:40.847Z,79.10
2018-03-17T13:50:09.298Z,79.90
2018-03-17T13:52:37.773Z,79.80
2018-03-17T13:55:06.091Z,79.10
2018-03-17T13:57:33.632Z,79.10
2018-03-17T14:00:01.200Z,79.50
2018-03-17T14:02:28.846Z,79.60
2018-03-17T14:04:57.199Z,78.90
2018-03-17T14:07:26.449Z,78.80
2018-03-17T14:09:54.087Z,78.80
2018-03-17T14:12:21.646Z,78.60
2018-03-17T14:14:49.461Z,78.80
2018-03-17T14:17:17.004Z,78.90
2018-03-17T14:19:44.594Z,78.70
2018-03-17T14:22:12.723Z,78.50
2018-03-17T14:24:40.276Z,77.30
2018-03-17T14:27:08.051Z,78.50
2018-03-17T14:29:35.622Z,79.10
2018-03-17T14:32:03.197Z,78.50
2018-03-17T14:34:30.747Z,78.70
2018-03-17T14:36:58.318Z,79.00
2018-03-17T14:39:25.888Z,78.90
2018-03-17T14:41:54.979Z,79.30
2018-03-17T14:44:22.529Z,79.30
2018-03-17T14:46:50.160Z,79.40
2018-03-17T14:49:17.657Z,79.40
2018-03-17T14:51:45.231Z,79.40
2018-03-17T14:54:12.799Z,79.40
2018-03-17T14:56:41.219Z,79.00
2018-03-17T14:59:08.761Z,78.90
2018-03-17T15:01:36.541Z,79.40
2018-03-17T15:04:04.100Z,78.60
2018-03-17T15:06:31.687Z,78.80
2018-03-17T15:08:59.237Z,78.70
2018-03-17T15:11:26.819Z,78.80
2018-03-17T15:13:54.501Z,79.30
2018-03-17T15:16:22.859Z,78.80
2018-03-17T15:18:50.427Z,78.70
2018-03-17T15:21:18.756Z,78.80
2018-03-17T15:23:46.440Z,78.90
2018-03-17T15:26:14.393Z,79.10
2018-03-17T15:28:41.971Z,78.70
2018-03-17T15:31:10.199Z,79.00
2018-03-17T15:33:37.778Z,78.80
2018-03-17T15:36:05.313Z,78.70
2018-03-17T15:38:33.646Z,79.20
2018-03-17T15:41:01.189Z,79.20
2018-03-17T15:43:28.845Z,79.20
2018-03-17T15:45:56.411Z,78.80
2018-03-17T15:48:23.976Z,79.20
2018-03-17T15:50:51.533Z,79.20
2018-03-17T15:53:19.146Z,79.20
2018-03-17T15:55:47.714Z,79.10
2018-03-17T15:58:16.054Z,79.20
2018-03-17T16:00:43.630Z,79.20
2018-03-17T16:03:11.226Z,79.30
2018-03-17T16:05:39.535Z,79.50
2018-03-17T16:08:07.099Z,79.40
2018-03-17T16:10:34.952Z,79.30
2018-03-17T16:13:02.524Z,79.50
2018-03-17T16:15:30.085Z,80.00
2018-03-17T16:17:57.806Z,79.20
2018-03-17T16:20:26.592Z,79.50
2018-03-17T16:22:54.129Z,79.40
2018-03-17T16:25:21.749Z,79.70
2018-03-17T16:27:49.327Z,79.40
2018-03-17T16:30:16.892Z,79.00
2018-03-17T16:32:44.462Z,79.20
2018-03-17T16:35:12.033Z,80.30
2018-03-17T16:37:40.363Z,80.20
2018-03-17T16:40:08.024Z,80.10
2018-03-17T16:42:35.590Z,80.10
2018-03-17T16:45:03.246Z,79.80
2018-03-17T16:47:30.819Z,79.70
2018-03-17T16:49:58.435Z,79.50
2018-03-17T16:52:26.752Z,80.00
2018-03-17T16:54:54.360Z,79.90
2018-03-17T16:57:21.902Z,79.90
2018-03-17T16:59:49.457Z,79.60
2018-03-17T17:02:17.022Z,79.60
2018-03-17T17:04:44.831Z,79.70
2018-03-17T17:07:12.394Z,79.70
2018-03-17T17:09:39.967Z,79.90
2018-03-17T17:12:07.526Z,79.50
2018-03-17T17:14:35.192Z,79.30
2018-03-17T17:17:02.748Z,79.70
2018-03-17T17:19:30.521Z,79.10
2018-03-17T17:21:58.074Z,79.50
2018-03-17T17:24:25.626Z,79.50
2018-03-17T17:26:53.206Z,79.30
2018-03-17T17:29:20.755Z,79.60
2018-03-17T17:31:48.583Z,79.80
2018-03-17T17:34:16.167Z,79.70
2018-03-17T17:36:43.785Z,79.90
2018-03-17T17:39:12.093Z,79.30
2018-03-17T17:41:39.675Z,79.30
2018-03-17T17:44:07.221Z,79.30
2018-03-17T17:46:34.791Z,79.10
2018-03-17T17:49:02.370Z,79.00
2018-03-17T17:51:29.988Z,79.00
2018-03-17T17:53:58.508Z,79.00
2018-03-17T17:56:26.170Z,79.00
2018-03-17T17:58:53.757Z,79.00
2018-03-17T18:01:21.347Z,79.00
2018-03-17T18:03:48.950Z,78.80
2018-03-17T18:06:16.513Z,78.90
2018-03-17T18:08:44.105Z,78.50
2018-03-17T18:11:11.661Z,78.80
2018-03-17T18:13:40.084Z,79.00
2018-03-17T18:16:07.658Z,78.90
2018-03-17T18:18:35.244Z,79.40
2018-03-17T18:21:02.807Z,79.00
2018-03-17T18:23:30.374Z,79.00
2018-03-17T18:25:58.685Z,79.00
2018-03-17T18:28:26.282Z,79.00
2018-03-17T18:30:53.843Z,79.00
2018-03-17T18:33:21.430Z,79.20
2018-03-17T18:35:49.773Z,79.00
2018-03-17T18:38:17.370Z,79.00
2018-03-17T18:40:45.708Z,78.90
2018-03-17T18:43:13.284Z,78.90
2018-03-17T18:45:40.861Z,79.00
2018-03-17T18:48:08.444Z,79.00
2018-03-17T18:50:36.803Z,79.40
2018-03-17T18:53:04.386Z,79.00
2018-03-17T18:55:32.720Z,79.00
2018-03-17T18:58:00.296Z,79.00
2018-03-17T19:00:27.850Z,79.00
2018-03-17T19:02:55.593Z,79.00
2018-03-17T19:05:23.208Z,78.00
2018-03-17T19:07:50.868Z,78.20
2018-03-17T19:10:18.465Z,78.70
2018-03-17T19:12:46.441Z,79.00
2018-03-17T19:15:13.990Z,79.10
2018-03-17T19:17:41.555Z,78.80
2018-03-17T19:20:09.214Z,79.00
2018-03-17T19:22:36.776Z,79.00
2018-03-17T19:25:04.336Z,78.30
2018-03-17T19:27:31.945Z,77.50
2018-03-17T19:30:00.374Z,78.00
2018-03-17T19:32:27.983Z,77.60
2018-03-17T19:34:55.586Z,78.40
2018-03-17T19:37:23.168Z,78.70
2018-03-17T19:39:50.704Z,78.10
2018-03-17T19:42:18.299Z,78.30
2018-03-17T19:44:45.864Z,78.60
2018-03-17T19:47:13.446Z,78.10
2018-03-17T19:49:40.987Z,78.30
2018-03-17T19:52:08.547Z,78.60
2018-03-17T19:54:36.141Z,78.50
2018-03-17T19:57:04.462Z,77.80
2018-03-17T19:59:32.005Z,77.80
2018-03-17T20:01:59.595Z,77.60
2018-03-17T20:04:27.333Z,77.80
2018-03-17T20:06:54.907Z,77.80
2018-03-17T20:09:22.448Z,77.70
2018-03-17T20:11:50.118Z,77.60
2018-03-17T20:14:17.675Z,77.80
2018-03-17T20:16:45.240Z,77.90
2018-03-17T20:19:12.875Z,77.20
2018-03-17T20:21:40.371Z,76.90
2018-03-17T20:24:07.935Z,76.50
2018-03-17T20:26:35.507Z,76.20
2018-03-17T20:29:03.070Z,76.70
2018-03-17T20:31:30.739Z,76.30
2018-03-17T20:33:58.288Z,76.10
2018-03-17T20:36:25.882Z,75.40
2018-03-17T20:38:53.557Z,75.80
2018-03-17T20:41:21.142Z,76.10
2018-03-17T20:43:48.778Z,76.00
2018-03-17T20:46:16.365Z,76.60
2018-03-17T20:48:43.935Z,76.70
2018-03-17T20:51:11.526Z,76.90
2018-03-17T20:53:39.894Z,76.10
2018-03-17T20:56:07.484Z,76.30
2018-03-17T20:58:35.884Z,76.20
2018-03-17T21:01:03.574Z,76.20
2018-03-17T21:03:31.164Z,76.10
2018-03-17T21:05:58.882Z,76.00
2018-03-17T21:08:26.576Z,76.00
2018-03-17T21:10:54.121Z,76.20
2018-03-17T21:13:21.745Z,75.70
2018-03-17T21:15:49.305Z,75.80
2018-03-17T21:18:16.882Z,75.60
2018-03-17T21:20:44.640Z,75.90
2018-03-17T21:23:12.304Z,76.50
2018-03-17T21:25:39.876Z,76.60
2018-03-17T21:28:07.491Z,76.50
2018-03-17T21:30:35.320Z,76.60
2018-03-17T21:33:02.891Z,76.10
2018-03-17T21:35:30.484Z,76.00
2018-03-17T21:37:58.885Z,76.10
2018-03-17T21:40:26.465Z,76.10
2018-03-17T21:42:54.138Z,75.80
2018-03-17T21:45:21.741Z,76.60
2018-03-17T21:47:50.201Z,76.30
2018-03-17T21:50:17.778Z,76.30
2018-03-17T21:52:45.335Z,74.70
2018-03-17T21:55:13.700Z,74.80
2018-03-17T21:57:42.024Z,74.90
2018-03-17T22:00:09.686Z,74.60
2018-03-17T22:02:37.374Z,74.60
2018-03-17T22:05:04.980Z,75.20
2018-03-17T22:07:32.537Z,75.10
2018-03-17T22:10:00.911Z,75.20
2018-03-17T22:12:28.503Z,75.20
2018-03-17T22:14:56.041Z,74.90
2018-03-17T22:17:23.611Z,74.60
2018-03-17T22:19:51.183Z,74.60
2018-03-17T22:22:18.752Z,74.60
2018-03-17T22:24:46.633Z,74.60
2018-03-17T22:27:14.221Z,74.60
2018-03-17T22:29:41.795Z,74.50
2018-03-17T22:32:09.376Z,74.50
2018-03-17T22:34:37.020Z,75.10
2018-03-17T22:37:05.350Z,74.50
2018-03-17T22:39:32.936Z,74.50
2018-03-17T22:42:01.400Z,74.50
2018-03-17T22:44:28.991Z,74.50
2018-03-17T22:46:56.569Z,74.10
2018-03-17T22:49:24.167Z,74.50
2018-03-17T22:51:51.781Z,74.50
2018-03-17T22:54:19.516Z,74.50
2018-03-17T22:56:47.072Z,74.50
2018-03-17T22:59:14.667Z,73.10
2018-03-17T23:01:42.981Z,74.40
2018-03-17T23:04:10.586Z,74.40
2018-03-17T23:06:38.173Z,74.50
2018-03-17T23:09:05.758Z,74.50
2018-03-17T23:11:33.377Z,74.50
2018-03-17T23:14:01.737Z,73.50
2018-03-17T23:16:30.788Z,73.50
2018-03-17T23:18:58.553Z,73.50
2018-03-17T23:21:26.140Z,73.40
2018-03-17T23:23:53.705Z,74.40
2018-03-17T23:26:22.175Z,74.50
2018-03-17T23:28:51.294Z,74.50
2018-03-17T23:31:18.867Z,74.40
2018-03-17T23:33:46.513Z,74.50
2018-03-17T23:36:14.099Z,74.50
2018-03-17T23:38:42.490Z,74.10
2018-03-17T23:41:10.181Z,74.00
2018-03-17T23:43:37.776Z,73.40
2018-03-17T23:46:05.335Z,73.80
2018-03-17T23:48:32.897Z,72.60
2018-03-17T23:51:01.249Z,74.00
2018-03-17T23:53:28.829Z,74.10
2018-03-17T23:55:56.432Z,73.40
2018-03-17T23:58:24.042Z,74.30
